createdAt,value
2018-05-16T00:01:07.178Z,10.00
2018-05-16T00:03:35.715Z,10.00
2018-05-16T00:06:04.245Z,10.00
2018-05-16T00:08:32.889Z,9.90
2018-05-16T00:11:01.277Z,9.90
2018-05-16T00:13:29.644Z,9.90
2018-05-16T00:15:58.761Z,9.90
2018-05-16T00:18:28.560Z,9.90
2018-05-16T00:20:58.037Z,9.90
2018-05-16T00:23:26.705Z,9.90
2018-05-16T00:25:55.890Z,9.90
2018-05-16T00:28:25.030Z,9.90
2018-05-16T00:30:53.412Z,10.00
2018-05-16T00:33:23.171Z,10.00
2018-05-16T00:35:51.547Z,10.00
2018-05-16T00:38:19.949Z,10.00
2018-05-16T00:40:49.096Z,10.10
2018-05-16T00:43:17.500Z,10.00
2018-05-16T00:45:46.648Z,10.10
2018-05-16T00:48:15.236Z,10.00
2018-05-16T00:51:01.576Z,10.10
2018-05-16T00:53:29.991Z,10.10
2018-05-16T00:55:58.374Z,10.10
2018-05-16T00:58:26.750Z,10.10
2018-05-16T01:00:55.149Z,10.10
2018-05-16T01:03:23.698Z,10.10
2018-05-16T01:05:52.860Z,10.10
2018-05-16T01:08:21.237Z,10.10
2018-05-16T01:10:49.993Z,10.10
2018-05-16T01:13:18.372Z,10.10
2018-05-16T01:15:46.750Z,10.10
2018-05-16T01:18:15.156Z,10.10
2018-05-16T01:20:43.533Z,10.10
2018-05-16T01:23:11.934Z,10.10
2018-05-16T01:25:40.313Z,10.10
2018-05-16T01:28:08.872Z,10.10
2018-05-16T01:30:37.265Z,10.20
2018-05-16T01:33:05.713Z,10.20
2018-05-16T01:35:34.122Z,10.20
2018-05-16T01:38:02.488Z,10.20
2018-05-16T01:40:30.885Z,10.20
2018-05-16T01:42:59.260Z,10.20
2018-05-16T01:45:27.904Z,10.30
2018-05-16T01:47:56.289Z,10.30
2018-05-16T01:50:24.662Z,10.30
2018-05-16T01:52:53.064Z,10.30
2018-05-16T01:55:21.441Z,10.30
2018-05-16T01:57:49.845Z,10.30
2018-05-16T02:00:18.223Z,10.30
2018-05-16T02:02:47.573Z,10.30
2018-05-16T02:05:15.981Z,10.30
2018-05-16T02:07:44.361Z,10.30
2018-05-16T02:10:12.765Z,10.30
2018-05-16T02:12:41.905Z,10.30
2018-05-16T02:15:10.305Z,10.40
2018-05-16T02:17:38.688Z,10.40
2018-05-16T02:20:07.349Z,10.40
2018-05-16T02:22:35.728Z,10.40
2018-05-16T02:25:04.100Z,10.30
2018-05-16T02:27:32.496Z,10.30
2018-05-16T02:30:00.876Z,10.30
2018-05-16T02:32:29.281Z,10.30
2018-05-16T02:34:57.737Z,10.30
2018-05-16T02:37:26.223Z,10.20
2018-05-16T02:39:54.592Z,10.20
2018-05-16T02:42:22.968Z,10.10
2018-05-16T02:44:51.381Z,10.10
2018-05-16T02:47:19.763Z,10.10
2018-05-16T02:49:48.796Z,10.00
2018-05-16T02:52:19.004Z,10.00
2018-05-16T02:54:48.673Z,10.00
2018-05-16T02:57:18.763Z,10.00
2018-05-16T02:59:47.951Z,10.10
2018-05-16T03:02:16.874Z,10.10
2018-05-16T03:04:45.774Z,10.00
2018-05-16T03:07:14.694Z,10.00
2018-05-16T03:09:44.087Z,10.00
2018-05-16T03:12:13.737Z,10.10
2018-05-16T03:14:42.512Z,10.00
2018-05-16T03:17:11.727Z,10.10
2018-05-16T03:19:40.109Z,10.00
2018-05-16T03:22:08.483Z,10.00
2018-05-16T03:24:36.885Z,10.00
2018-05-16T03:27:05.265Z,10.00
2018-05-16T03:29:33.665Z,10.00
2018-05-16T03:32:02.074Z,10.10
2018-05-16T03:34:30.513Z,10.00
2018-05-16T03:36:58.889Z,10.00
2018-05-16T03:39:27.269Z,10.10
2018-05-16T03:41:55.675Z,10.10
2018-05-16T03:44:24.819Z,10.10
2018-05-16T03:46:53.216Z,10.10
2018-05-16T03:49:21.592Z,10.20
2018-05-16T03:51:50.014Z,10.20
2018-05-16T03:54:19.342Z,10.30
2018-05-16T03:56:47.718Z,10.30
2018-05-16T03:59:33.830Z,10.30
2018-05-16T04:05:12.276Z,10.40
2018-05-16T04:07:40.655Z,10.50
2018-05-16T04:10:09.063Z,10.40
2018-05-16T04:12:38.316Z,10.50
2018-05-16T04:15:06.754Z,10.50
2018-05-16T04:17:35.138Z,10.50
2018-05-16T04:20:04.285Z,10.60
2018-05-16T04:22:32.685Z,10.60
2018-05-16T04:25:01.071Z,10.60
2018-05-16T04:27:30.241Z,10.60
2018-05-16T04:29:58.672Z,10.60
2018-05-16T04:32:27.281Z,10.70
2018-05-16T04:34:55.677Z,10.70
2018-05-16T04:37:24.103Z,10.70
2018-05-16T04:39:53.285Z,10.70
2018-05-16T04:42:22.439Z,10.70
2018-05-16T04:44:50.844Z,10.70
2018-05-16T04:47:20.021Z,10.70
2018-05-16T04:49:48.552Z,10.70
2018-05-16T04:52:17.689Z,10.80
2018-05-16T04:54:46.069Z,10.70
2018-05-16T04:57:14.469Z,10.80
2018-05-16T04:59:42.844Z,10.70
2018-05-16T05:02:11.249Z,10.70
2018-05-16T05:04:39.621Z,10.70
2018-05-16T05:07:08.017Z,10.70
2018-05-16T05:09:37.160Z,10.70
2018-05-16T05:12:05.539Z,10.70
2018-05-16T05:14:33.945Z,10.70
2018-05-16T05:17:02.332Z,10.70
2018-05-16T05:19:31.500Z,10.70
2018-05-16T05:21:59.893Z,10.70
2018-05-16T05:24:28.454Z,10.70
2018-05-16T05:26:56.830Z,10.70
2018-05-16T05:29:25.203Z,10.70
2018-05-16T05:31:53.601Z,10.70
2018-05-16T05:34:21.986Z,10.80
2018-05-16T05:36:50.447Z,10.80
2018-05-16T05:39:18.790Z,10.80
2018-05-16T05:41:47.400Z,10.90
2018-05-16T05:44:15.788Z,10.90
2018-05-16T05:46:44.167Z,10.90
2018-05-16T05:49:12.616Z,10.90
2018-05-16T05:51:41.741Z,10.90
2018-05-16T05:54:10.157Z,10.90
2018-05-16T05:56:38.536Z,11.00
2018-05-16T05:59:07.385Z,11.00
2018-05-16T06:01:35.766Z,11.00
2018-05-16T06:04:04.140Z,11.00
2018-05-16T06:06:32.543Z,10.90
2018-05-16T06:09:00.920Z,10.90
2018-05-16T06:11:29.326Z,10.90
2018-05-16T06:13:58.492Z,10.90
2018-05-16T06:16:27.258Z,10.90
2018-05-16T06:18:55.683Z,10.90
2018-05-16T06:21:24.065Z,10.90
2018-05-16T06:23:52.466Z,10.90
2018-05-16T06:26:20.845Z,10.90
2018-05-16T06:28:49.239Z,10.90
2018-05-16T06:31:17.616Z,10.90
2018-05-16T06:33:46.336Z,11.00
2018-05-16T06:36:14.741Z,11.00
2018-05-16T06:38:43.116Z,11.00
2018-05-16T06:41:11.551Z,11.10
2018-05-16T06:43:39.937Z,11.20
2018-05-16T06:46:08.336Z,11.30
2018-05-16T06:48:36.724Z,11.30
2018-05-16T06:51:05.379Z,11.40
2018-05-16T06:53:33.792Z,11.50
2018-05-16T06:56:02.186Z,11.60
2018-05-16T06:58:31.352Z,11.60
2018-05-16T07:00:59.741Z,11.50
2018-05-16T07:03:28.141Z,11.60
2018-05-16T07:05:57.393Z,11.70
2018-05-16T07:08:25.751Z,11.70
2018-05-16T07:10:54.128Z,11.80
2018-05-16T07:13:22.501Z,11.80
2018-05-16T07:15:50.908Z,11.90
2018-05-16T07:18:19.288Z,11.90
2018-05-16T07:20:47.700Z,11.90
2018-05-16T07:23:16.077Z,11.90
2018-05-16T07:25:44.721Z,11.80
2018-05-16T07:28:13.126Z,11.80
2018-05-16T07:30:41.508Z,11.80
2018-05-16T07:33:09.914Z,11.90
2018-05-16T07:35:39.059Z,11.90
2018-05-16T07:38:07.497Z,11.90
2018-05-16T07:40:36.647Z,11.80
2018-05-16T07:43:05.070Z,11.80
2018-05-16T07:45:34.212Z,11.80
2018-05-16T07:48:02.590Z,11.80
2018-05-16T07:50:30.993Z,11.90
2018-05-16T07:52:59.369Z,12.00
2018-05-16T07:55:27.774Z,12.10
2018-05-16T07:57:56.945Z,12.20
2018-05-16T08:00:26.156Z,12.20
2018-05-16T08:02:54.532Z,12.20
2018-05-16T08:05:22.909Z,12.20
2018-05-16T08:07:51.316Z,12.20
2018-05-16T08:10:20.460Z,12.30
2018-05-16T08:12:48.858Z,12.30
2018-05-16T08:15:17.244Z,12.40
2018-05-16T08:17:45.790Z,12.40
2018-05-16T08:20:14.253Z,12.50
2018-05-16T08:22:42.632Z,12.60
2018-05-16T08:25:11.036Z,12.60
2018-05-16T08:27:39.415Z,12.60
2018-05-16T08:30:07.817Z,12.60
2018-05-16T08:32:36.189Z,12.50
2018-05-16T08:35:04.585Z,12.50
2018-05-16T08:37:33.724Z,12.60
2018-05-16T08:40:02.122Z,12.50
2018-05-16T08:42:30.501Z,12.60
2018-05-16T08:44:59.003Z,12.60
2018-05-16T08:47:27.387Z,12.60
2018-05-16T08:49:55.768Z,12.70
2018-05-16T08:52:24.175Z,12.80
2018-05-16T08:54:53.313Z,13.00
2018-05-16T08:57:21.713Z,13.00
2018-05-16T08:59:50.094Z,12.90
2018-05-16T09:02:18.754Z,12.90
2018-05-16T09:04:47.158Z,12.70
2018-05-16T09:07:16.213Z,12.70
2018-05-16T09:09:44.617Z,12.80
2018-05-16T09:12:12.991Z,12.90
2018-05-16T09:14:41.384Z,13.00
2018-05-16T09:17:10.591Z,12.90
2018-05-16T09:19:38.977Z,12.90
2018-05-16T09:22:07.349Z,12.90
2018-05-16T09:24:35.729Z,12.80
2018-05-16T09:27:04.128Z,12.70
2018-05-16T09:29:33.276Z,12.60
2018-05-16T09:32:01.681Z,12.50
2018-05-16T09:34:30.063Z,12.50
2018-05-16T09:36:59.256Z,12.50
2018-05-16T09:39:27.627Z,12.60
2018-05-16T09:41:57.516Z,12.60
2018-05-16T09:44:25.912Z,12.60
2018-05-16T09:46:54.604Z,12.70
2018-05-16T09:49:23.005Z,12.70
2018-05-16T09:51:52.157Z,12.80
2018-05-16T09:54:20.562Z,12.80
2018-05-16T09:56:48.951Z,12.80
2018-05-16T09:59:17.382Z,12.90
2018-05-16T10:01:45.764Z,12.90
2018-05-16T10:04:14.141Z,12.90
2018-05-16T10:06:42.549Z,12.90
2018-05-16T10:09:11.001Z,12.90
2018-05-16T10:11:39.412Z,12.90
2018-05-16T10:14:07.810Z,12.80
2018-05-16T10:16:37.370Z,12.70
2018-05-16T10:19:05.751Z,12.60
2018-05-16T10:21:34.132Z,12.60
2018-05-16T10:24:02.537Z,12.60
2018-05-16T10:26:30.923Z,12.60
2018-05-16T10:28:59.330Z,12.60
2018-05-16T10:31:28.480Z,12.70
2018-05-16T10:33:57.141Z,12.70
2018-05-16T10:36:25.636Z,12.80
2018-05-16T10:38:54.009Z,12.80
2018-05-16T10:41:22.450Z,12.70
2018-05-16T10:43:50.833Z,12.70
2018-05-16T10:46:19.225Z,12.70
2018-05-16T10:48:47.599Z,12.80
2018-05-16T10:51:16.093Z,12.80
2018-05-16T10:53:44.464Z,12.80
2018-05-16T10:56:13.244Z,12.70
2018-05-16T10:58:41.644Z,12.70
2018-05-16T11:01:10.020Z,12.70
2018-05-16T11:03:38.433Z,12.90
2018-05-16T11:06:06.801Z,13.00
2018-05-16T11:08:35.229Z,13.10
2018-05-16T11:11:03.604Z,13.10
2018-05-16T11:13:32.754Z,13.10
2018-05-16T11:16:01.153Z,13.10
2018-05-16T11:18:29.531Z,13.00
2018-05-16T11:20:57.936Z,13.00
2018-05-16T11:23:26.296Z,12.90
2018-05-16T11:25:55.476Z,12.80
2018-05-16T11:28:23.928Z,12.70
2018-05-16T11:30:52.300Z,12.70
2018-05-16T11:33:20.698Z,12.70
2018-05-16T11:35:49.088Z,12.60
2018-05-16T11:38:17.521Z,12.60
2018-05-16T11:40:45.927Z,12.60
2018-05-16T11:43:14.349Z,12.60
2018-05-16T11:45:43.512Z,12.50
2018-05-16T11:48:11.883Z,12.50
2018-05-16T11:50:40.289Z,12.60
2018-05-16T11:53:08.724Z,12.50
2018-05-16T11:55:37.128Z,12.60
2018-05-16T11:58:05.502Z,12.60
2018-05-16T12:00:33.928Z,12.70
2018-05-16T12:03:03.070Z,12.80
2018-05-16T12:05:31.455Z,12.80
2018-05-16T12:07:59.849Z,12.90
2018-05-16T12:10:28.219Z,12.90
2018-05-16T12:12:56.632Z,12.90
2018-05-16T12:15:25.763Z,12.90
2018-05-16T12:17:54.156Z,12.80
2018-05-16T12:20:22.524Z,12.90
2018-05-16T12:22:50.933Z,12.90
2018-05-16T12:25:19.350Z,12.90
2018-05-16T12:27:48.519Z,13.00
2018-05-16T12:30:16.886Z,13.00
2018-05-16T12:32:45.273Z,13.20
2018-05-16T12:35:13.673Z,13.20
2018-05-16T12:37:42.829Z,13.60
2018-05-16T12:40:11.300Z,13.50
2018-05-16T12:42:57.672Z,13.70
2018-05-16T12:45:26.094Z,13.80
2018-05-16T12:47:54.495Z,13.80
2018-05-16T12:50:22.868Z,13.80
2018-05-16T12:52:51.256Z,13.80
2018-05-16T12:55:20.397Z,13.80
2018-05-16T12:57:48.792Z,13.80
2018-05-16T13:00:17.156Z,13.80
2018-05-16T13:02:45.552Z,14.00
2018-05-16T13:05:13.925Z,14.00
2018-05-16T13:07:42.343Z,13.90
2018-05-16T13:10:10.723Z,13.80
2018-05-16T13:12:39.125Z,13.70
2018-05-16T13:15:07.496Z,13.80
2018-05-16T13:17:37.248Z,13.90
2018-05-16T13:20:05.547Z,13.90
2018-05-16T13:22:33.920Z,13.90
2018-05-16T13:25:02.353Z,13.80
2018-05-16T13:27:30.724Z,13.80
2018-05-16T13:29:59.133Z,13.80
2018-05-16T13:32:27.501Z,13.90
2018-05-16T13:34:56.084Z,13.80
2018-05-16T13:37:24.457Z,13.80
2018-05-16T13:39:52.825Z,13.80
2018-05-16T13:42:21.216Z,13.70
2018-05-16T13:44:49.584Z,13.60
2018-05-16T13:47:17.976Z,13.60
2018-05-16T13:49:46.349Z,13.40
2018-05-16T13:52:14.722Z,13.20
2018-05-16T13:54:43.125Z,13.10
2018-05-16T13:57:11.495Z,12.90
2018-05-16T13:59:39.886Z,12.80
2018-05-16T14:02:08.252Z,12.70
2018-05-16T14:04:36.945Z,12.60
2018-05-16T14:07:05.311Z,12.60
2018-05-16T14:09:33.677Z,12.50
2018-05-16T14:12:02.075Z,12.50
2018-05-16T14:14:30.448Z,12.50
2018-05-16T14:16:58.843Z,12.60
2018-05-16T14:19:27.218Z,12.70
2018-05-16T14:21:55.804Z,12.80
2018-05-16T14:24:24.212Z,12.90
2018-05-16T14:26:52.975Z,13.20
2018-05-16T14:29:21.370Z,13.50
2018-05-16T14:31:49.755Z,13.90
2018-05-16T14:34:18.163Z,14.50
2018-05-16T14:36:47.354Z,15.50
2018-05-16T14:39:16.896Z,15.90
2018-05-16T14:41:45.271Z,15.90
2018-05-16T14:44:13.773Z,16.10
2018-05-16T14:46:42.182Z,16.30
2018-05-16T14:49:10.563Z,16.30
2018-05-16T14:51:38.966Z,16.30
2018-05-16T14:54:07.341Z,16.10
2018-05-16T14:56:36.723Z,15.60
2018-05-16T14:59:05.868Z,15.40
2018-05-16T15:01:34.240Z,15.30
2018-05-16T15:04:02.637Z,15.10
2018-05-16T15:06:31.021Z,14.90
2018-05-16T15:08:59.419Z,14.70
2018-05-16T15:11:27.789Z,14.60
2018-05-16T15:13:56.476Z,14.40
2018-05-16T15:16:24.846Z,14.20
2018-05-16T15:18:53.216Z,14.10
2018-05-16T15:21:21.623Z,14.00
2018-05-16T15:23:50.006Z,13.80
2018-05-16T15:26:18.404Z,13.70
2018-05-16T15:28:47.554Z,13.50
2018-05-16T15:31:15.985Z,13.50
2018-05-16T15:33:45.118Z,13.30
2018-05-16T15:36:13.512Z,13.30
2018-05-16T15:38:41.916Z,13.20
2018-05-16T15:41:10.294Z,13.00
2018-05-16T15:43:38.697Z,12.80
2018-05-16T15:46:07.840Z,12.40
2018-05-16T15:48:36.299Z,12.40
2018-05-16T15:51:04.745Z,12.30
2018-05-16T15:53:33.889Z,12.00
2018-05-16T15:56:02.281Z,12.00
2018-05-16T15:58:30.663Z,11.90
2018-05-16T16:00:59.064Z,11.80
2018-05-16T16:03:27.438Z,11.70
2018-05-16T16:05:56.090Z,11.60
2018-05-16T16:08:24.458Z,11.50
2018-05-16T16:10:52.826Z,11.30
2018-05-16T16:13:21.221Z,11.30
2018-05-16T16:15:49.685Z,11.20
2018-05-16T16:18:18.146Z,11.10
2018-05-16T16:20:47.362Z,10.90
2018-05-16T16:23:15.900Z,10.90
2018-05-16T16:25:44.269Z,10.80
2018-05-16T16:28:12.650Z,10.70
2018-05-16T16:30:41.124Z,10.70
2018-05-16T16:33:09.505Z,10.60
2018-05-16T16:35:37.907Z,10.60
2018-05-16T16:38:07.104Z,10.70
2018-05-16T16:40:36.657Z,10.70
2018-05-16T16:43:05.029Z,10.70
2018-05-16T16:45:33.405Z,10.70
2018-05-16T16:48:01.863Z,10.70
2018-05-16T16:50:30.429Z,10.70
2018-05-16T16:53:01.477Z,10.70
2018-05-16T16:55:31.133Z,10.80
2018-05-16T16:57:59.913Z,10.80
2018-05-16T17:00:32.140Z,10.80
2018-05-16T17:03:03.151Z,10.80
2018-05-16T17:05:33.066Z,10.90
2018-05-16T17:08:03.060Z,10.90
2018-05-16T17:10:34.195Z,11.00
2018-05-16T17:13:06.901Z,11.00
2018-05-16T17:15:37.032Z,11.00
2018-05-16T17:18:07.435Z,11.00
2018-05-16T17:20:37.235Z,11.10
2018-05-16T17:23:07.833Z,11.10
2018-05-16T17:25:38.287Z,11.00
2018-05-16T17:28:06.883Z,11.00
2018-05-16T17:30:36.272Z,10.90
2018-05-16T17:33:05.100Z,10.90
2018-05-16T17:35:34.584Z,11.00
2018-05-16T17:38:04.020Z,11.00
2018-05-16T17:40:34.859Z,11.00
2018-05-16T17:43:05.289Z,11.00
2018-05-16T17:45:35.667Z,11.00
2018-05-16T17:48:04.462Z,11.00
2018-05-16T17:50:34.168Z,10.90
2018-05-16T17:53:04.473Z,10.90
2018-05-16T17:55:34.762Z,10.90
2018-05-16T17:58:05.169Z,10.90
2018-05-16T18:00:33.942Z,10.90
2018-05-16T18:03:03.375Z,10.80
2018-05-16T18:05:32.932Z,10.80
2018-05-16T18:08:02.409Z,10.80
2018-05-16T18:10:31.040Z,10.80
2018-05-16T18:16:43.863Z,10.80
2018-05-16T18:19:12.410Z,10.90
2018-05-16T18:21:41.575Z,10.90
2018-05-16T18:24:11.442Z,10.80
2018-05-16T18:26:41.577Z,10.80
2018-05-16T18:29:10.849Z,10.70
2018-05-16T18:31:41.605Z,10.70
2018-05-16T18:34:11.147Z,10.60
2018-05-16T18:36:40.666Z,10.60
2018-05-16T18:39:11.421Z,10.50
2018-05-16T18:41:41.511Z,10.50
2018-05-16T18:44:12.560Z,10.50
2018-05-16T18:46:43.221Z,10.50
2018-05-16T18:49:12.771Z,10.40
2018-05-16T18:51:42.846Z,10.40
2018-05-16T18:54:12.949Z,10.50
2018-05-16T18:56:43.248Z,10.50
2018-05-16T18:59:13.920Z,10.50
2018-05-16T19:01:43.553Z,10.50
2018-05-16T19:04:13.388Z,10.50
2018-05-16T19:06:43.553Z,10.50
2018-05-16T19:09:13.586Z,10.60
2018-05-16T19:11:43.303Z,10.60
2018-05-16T19:14:13.549Z,10.60
2018-05-16T19:16:44.081Z,10.50
2018-05-16T19:19:13.985Z,10.50
2018-05-16T19:21:43.921Z,10.50
2018-05-16T19:24:13.669Z,10.50
2018-05-16T19:26:44.360Z,10.50
2018-05-16T19:29:14.341Z,10.50
2018-05-16T19:31:44.334Z,10.50
2018-05-16T19:34:13.531Z,10.50
2018-05-16T19:36:43.454Z,10.50
2018-05-16T19:39:14.730Z,10.50
2018-05-16T19:41:44.424Z,10.50
2018-05-16T19:44:13.347Z,10.50
2018-05-16T19:46:43.880Z,10.50
2018-05-16T19:49:15.345Z,10.40
2018-05-16T19:51:46.048Z,10.40
2018-05-16T19:54:15.373Z,10.40
2018-05-16T19:56:45.634Z,10.50
2018-05-16T19:59:14.512Z,10.40
2018-05-16T20:01:43.534Z,10.50
2018-05-16T20:04:12.324Z,10.50
2018-05-16T20:06:40.941Z,10.50
2018-05-16T20:09:09.823Z,10.60
2018-05-16T20:11:38.448Z,10.60
2018-05-16T20:14:06.886Z,10.60
2018-05-16T20:16:35.347Z,10.70
2018-05-16T20:19:03.984Z,10.70
2018-05-16T20:21:32.403Z,10.70
2018-05-16T20:24:02.715Z,10.70
2018-05-16T20:26:31.229Z,10.70
2018-05-16T20:29:02.973Z,10.70
2018-05-16T20:31:31.754Z,10.70
2018-05-16T20:34:01.076Z,10.80
2018-05-16T20:36:29.457Z,10.70
2018-05-16T20:38:57.856Z,10.70
2018-05-16T20:41:27.005Z,10.80
2018-05-16T20:43:55.475Z,10.80
2018-05-16T20:46:24.586Z,10.80
2018-05-16T20:48:53.117Z,10.80
2018-05-16T20:51:22.573Z,10.90
2018-05-16T20:53:52.353Z,10.90
2018-05-16T20:56:22.777Z,10.90
2018-05-16T20:58:51.305Z,10.90
2018-05-16T21:01:19.914Z,10.90
2018-05-16T21:03:49.085Z,10.90
2018-05-16T21:06:18.046Z,10.90
2018-05-16T21:08:46.433Z,10.90
2018-05-16T21:11:16.192Z,10.80
2018-05-16T21:13:44.729Z,10.80
2018-05-16T21:16:13.138Z,10.80
2018-05-16T21:18:41.534Z,10.80
2018-05-16T21:21:10.934Z,10.80
2018-05-16T21:23:42.495Z,10.80
2018-05-16T21:26:12.866Z,10.80
2018-05-16T21:28:43.133Z,10.80
2018-05-16T21:31:17.658Z,10.80
2018-05-16T21:33:47.988Z,10.80
2018-05-16T21:36:16.929Z,10.80
2018-05-16T21:38:45.335Z,10.80
2018-05-16T21:41:13.759Z,10.70
2018-05-16T21:43:42.140Z,10.60
2018-05-16T21:46:10.573Z,10.60
2018-05-16T21:48:38.967Z,10.50
2018-05-16T21:51:07.392Z,10.40
2018-05-16T21:53:35.764Z,10.40
2018-05-16T21:56:04.136Z,10.30
2018-05-16T21:58:32.529Z,10.20
2018-05-16T22:01:01.024Z,10.20
2018-05-16T22:03:29.429Z,10.20
2018-05-16T22:05:57.813Z,10.20
2018-05-16T22:08:26.657Z,10.10
2018-05-16T22:10:55.043Z,10.10
2018-05-16T22:13:23.424Z,10.10
2018-05-16T22:15:51.976Z,10.10
2018-05-16T22:18:20.352Z,10.10
2018-05-16T22:20:48.748Z,10.10
2018-05-16T22:23:17.124Z,10.10
2018-05-16T22:25:45.720Z,10.10
2018-05-16T22:28:14.098Z,10.10
2018-05-16T22:30:48.209Z,10.10
2018-05-16T22:33:22.173Z,10.10
2018-05-16T22:35:56.993Z,10.10
2018-05-16T22:38:31.029Z,10.10
2018-05-16T22:41:05.174Z,10.10
2018-05-16T22:46:35.132Z,10.20
2018-05-16T22:49:04.241Z,10.20
2018-05-16T22:51:32.724Z,10.20
2018-05-16T22:54:01.147Z,10.20
2018-05-16T22:56:29.519Z,10.30
2018-05-16T22:58:58.667Z,10.30
2018-05-16T23:01:27.785Z,10.30
2018-05-16T23:03:56.953Z,10.30
2018-05-16T23:06:25.508Z,10.30
2018-05-16T23:08:54.406Z,10.30
2018-05-16T23:11:22.788Z,10.40
2018-05-16T23:13:52.080Z,10.40
2018-05-16T23:16:21.229Z,10.40
2018-05-16T23:18:50.492Z,10.40
2018-05-16T23:21:19.097Z,10.40
2018-05-16T23:23:47.951Z,10.50
2018-05-16T23:26:16.905Z,10.50
2018-05-16T23:28:46.045Z,10.50
2018-05-16T23:31:14.424Z,10.50
2018-05-16T23:33:42.827Z,10.50
2018-05-16T23:36:11.225Z,10.60
2018-05-16T23:38:40.479Z,10.70
2018-05-16T23:41:08.885Z,10.70
2018-05-16T23:43:37.313Z,10.70
2018-05-16T23:46:05.825Z,10.70
2018-05-16T23:48:35.349Z,10.80
2018-05-16T23:51:03.904Z,10.70
2018-05-16T23:53:32.323Z,10.80
2018-05-16T23:56:00.889Z,10.80
2018-05-16T23:58:29.278Z,10.70
